Terminal Aerodrome Forecast
Issued by NWS Jackson, MS

Home | Current Version | Previous Version | Text Only | Print | Product List | Glossary On
Versions: 1 2 3 4 5 6 7 8 9 10 11 12
000
FTUS44 KMEG 252331
TAFTUP
TAF
KTUP 252331Z 2600/2624 18006KT P6SM VCTS BKN050CB
     FM260300 19004KT P6SM BKN050
     FM261200 20004KT P6SM OVC025
     FM261500 21006KT P6SM OVC015
     FM261800 21009KT P6SM BKN250=

USA.gov is the U.S. government's official web portal to all federal, state and local government web resources and services.